createdAt,value
2022-09-18T07:18:42.268Z,95962.28
2022-09-18T07:21:11.035Z,95909.63
2022-09-18T07:23:39.660Z,96013.19
2022-09-18T07:26:06.508Z,95978.69
2022-09-18T07:28:34.398Z,96016.47
2022-09-18T07:31:13.607Z,96019.94
2022-09-18T07:33:42.410Z,95994.00
2022-09-18T07:36:14.996Z,95987.88
2022-09-18T07:38:43.101Z,95994.50
2022-09-18T07:41:11.252Z,96004.38
2022-09-18T07:43:42.787Z,95979.25
2022-09-18T07:46:10.157Z,96012.22
2022-09-18T07:48:38.798Z,95972.16
2022-09-18T07:51:21.958Z,95999.22
2022-09-18T07:53:53.085Z,95993.84
2022-09-18T07:56:29.284Z,96014.09
2022-09-18T07:58:56.259Z,95996.97
2022-09-18T08:01:27.337Z,96038.81
2022-09-18T08:03:57.058Z,96023.34
2022-09-18T08:06:36.216Z,96026.56
2022-09-18T08:09:25.350Z,96028.72
2022-09-18T08:12:15.265Z,95973.09
2022-09-18T08:14:55.606Z,95992.72
2022-09-18T08:17:34.396Z,96008.66
2022-09-18T08:20:19.723Z,96008.72
2022-09-18T08:22:52.275Z,96028.63
2022-09-18T08:25:23.261Z,96026.09
2022-09-18T08:27:50.479Z,96015.28
2022-09-18T08:30:27.193Z,96047.50
2022-09-18T08:33:05.071Z,96056.50
2022-09-18T08:35:32.349Z,96029.63
2022-09-18T08:38:07.975Z,96030.84
2022-09-18T08:41:06.481Z,96043.75
2022-09-18T08:43:42.552Z,96033.28
2022-09-18T08:46:15.177Z,96007.31
2022-09-18T08:49:04.754Z,96046.81
2022-09-18T08:51:37.590Z,96038.41
2022-09-18T08:54:53.571Z,96047.13
2022-09-18T08:57:37.588Z,96036.88
2022-09-18T09:00:31.430Z,96037.28
2022-09-18T09:03:52.419Z,96031.06
2022-09-18T09:06:41.884Z,96033.38
2022-09-18T09:09:26.555Z,96032.78
2022-09-18T09:12:07.298Z,96010.34
2022-09-18T09:14:56.164Z,96033.84
2022-09-18T09:17:37.602Z,96035.53
2022-09-18T09:20:21.401Z,96035.03
2022-09-18T09:23:07.800Z,96006.66
2022-09-18T09:25:47.867Z,96030.75
2022-09-18T09:28:46.563Z,95997.59
2022-09-18T09:31:39.456Z,96019.53
2022-09-18T09:34:37.070Z,96001.44
2022-09-18T09:37:23.983Z,96015.94
2022-09-18T09:40:00.007Z,96027.78
2022-09-18T09:42:38.927Z,96000.34
2022-09-18T09:45:16.363Z,96006.06
2022-09-18T09:47:51.092Z,96013.84
2022-09-18T09:50:30.133Z,96023.47
2022-09-18T09:53:01.905Z,96017.75
2022-09-18T09:55:42.368Z,96019.72
2022-09-18T09:58:21.817Z,96012.28
2022-09-18T10:01:04.891Z,95996.38
2022-09-18T10:03:40.986Z,95996.53
2022-09-18T10:06:27.513Z,96014.34
2022-09-18T10:09:10.148Z,95999.31
2022-09-18T10:11:40.959Z,96002.31
2022-09-18T10:14:16.763Z,96009.91
2022-09-18T10:16:48.705Z,95985.06
2022-09-18T10:19:21.502Z,96008.97
2022-09-18T10:21:52.872Z,96002.31
2022-09-18T10:24:30.019Z,96013.28
2022-09-18T10:27:06.081Z,95990.56
2022-09-18T10:29:35.720Z,95961.38
2022-09-18T10:32:04.478Z,95975.22
2022-09-18T10:34:45.702Z,96001.53
2022-09-18T10:37:18.655Z,96006.00
2022-09-18T10:39:57.576Z,96005.72
2022-09-18T10:42:27.326Z,96003.41
2022-09-18T10:45:05.027Z,96010.53
2022-09-18T10:47:36.793Z,95978.50
2022-09-18T10:50:06.485Z,96009.25
2022-09-18T10:52:46.508Z,95978.31
2022-09-18T10:55:24.854Z,95962.69
2022-09-18T10:58:06.157Z,95982.75
2022-09-18T11:00:38.354Z,96001.31
2022-09-18T11:03:37.952Z,96006.06
2022-09-18T11:06:09.504Z,95999.00
2022-09-18T11:08:42.632Z,96008.06
2022-09-18T11:11:29.077Z,96006.97
2022-09-18T11:14:04.375Z,95962.91
2022-09-18T11:16:43.762Z,95985.09
2022-09-18T11:19:12.560Z,96001.56
2022-09-18T11:22:04.310Z,95995.53
2022-09-18T11:24:38.562Z,95995.38
2022-09-18T11:27:22.143Z,95985.13
2022-09-18T11:29:51.727Z,95916.06
2022-09-18T11:32:25.378Z,95991.97
2022-09-18T11:35:02.436Z,95978.03
2022-09-18T11:37:40.004Z,95997.06
2022-09-18T11:40:24.370Z,95993.66
2022-09-18T11:42:54.118Z,95973.53
2022-09-18T11:45:45.808Z,95987.38
2022-09-18T11:48:25.260Z,95983.72
2022-09-18T11:50:56.330Z,95964.22
2022-09-18T11:53:27.838Z,95954.22
2022-09-18T11:56:02.506Z,95975.44
2022-09-18T11:58:36.995Z,95939.94
2022-09-18T12:01:34.865Z,95974.09
2022-09-18T12:04:17.616Z,95972.03
2022-09-18T12:07:02.812Z,95970.25
2022-09-18T12:09:42.731Z,95955.91
2022-09-18T12:12:21.830Z,95944.94
2022-09-18T12:15:09.541Z,95973.50
2022-09-18T12:17:45.183Z,95968.72
2022-09-18T12:20:40.257Z,95962.06
2022-09-18T12:23:14.898Z,95971.19
2022-09-18T12:26:01.319Z,95969.66
2022-09-18T12:28:57.747Z,95965.53
2022-09-18T12:31:55.447Z,95949.94
2022-09-18T12:34:31.072Z,95962.34
2022-09-18T12:37:09.841Z,95967.72
2022-09-18T12:39:43.272Z,95958.19
2022-09-18T12:42:51.803Z,95959.16
2022-09-18T12:45:49.473Z,95947.00
2022-09-18T12:48:44.309Z,95953.28
2022-09-18T12:51:41.611Z,95953.28
2022-09-18T12:54:11.138Z,95955.25
2022-09-18T12:56:54.715Z,95952.06
2022-09-18T12:59:52.388Z,95946.34
2022-09-18T13:02:41.202Z,95950.63
2022-09-18T13:05:37.380Z,95945.00
2022-09-18T13:08:11.199Z,95935.50
2022-09-18T13:10:42.933Z,95938.63
2022-09-18T13:13:21.865Z,95939.44
2022-09-18T13:16:03.547Z,95907.94
2022-09-18T13:18:59.376Z,95936.56
2022-09-18T13:21:31.108Z,95902.84
2022-09-18T13:23:59.599Z,95932.06
2022-09-18T13:26:30.753Z,95942.53
2022-09-18T13:28:57.510Z,95933.75
2022-09-18T13:31:30.443Z,95915.28
2022-09-18T13:34:06.014Z,95909.44
2022-09-18T13:36:38.545Z,95925.44
2022-09-18T13:39:15.421Z,95916.38
2022-09-18T13:41:49.227Z,95912.75
2022-09-18T13:44:23.427Z,95904.25
2022-09-18T13:46:53.234Z,95902.94
2022-09-18T13:49:30.406Z,95873.41
2022-09-18T13:52:35.062Z,95903.03
2022-09-18T13:55:13.977Z,95895.25
2022-09-18T13:57:41.855Z,95904.25
2022-09-18T14:00:20.632Z,95898.97
2022-09-18T14:03:11.367Z,95868.59
2022-09-18T14:05:39.775Z,95896.34
2022-09-18T14:08:22.299Z,95886.66
2022-09-18T14:11:05.436Z,95889.44
2022-09-18T14:13:39.380Z,95888.22
2022-09-18T14:16:25.542Z,95890.41
2022-09-18T14:19:02.879Z,95864.28
2022-09-18T14:21:39.927Z,95881.47
2022-09-18T14:24:18.530Z,95883.41
2022-09-18T14:26:45.221Z,95873.63
2022-09-18T14:29:14.928Z,95874.72
2022-09-18T14:31:44.825Z,95879.81
2022-09-18T14:34:32.621Z,95877.50
2022-09-18T14:37:02.243Z,95878.72
2022-09-18T14:39:36.034Z,95865.72
2022-09-18T14:42:41.272Z,95870.66
2022-09-18T14:45:11.011Z,95875.50
2022-09-18T14:47:38.337Z,95865.50
2022-09-18T14:50:31.405Z,95860.78
2022-09-18T14:53:01.118Z,95838.06
2022-09-18T14:55:40.732Z,95871.31
2022-09-18T14:58:12.660Z,95840.19
2022-09-18T15:00:39.539Z,95864.31
2022-09-18T15:03:20.921Z,95834.16
2022-09-18T15:05:51.233Z,95855.19
2022-09-18T15:08:26.342Z,95868.50
2022-09-18T15:10:53.583Z,95861.44
2022-09-18T15:13:22.131Z,95865.59
2022-09-18T15:16:01.486Z,95853.09
2022-09-18T15:18:29.766Z,95850.84
2022-09-18T15:20:59.313Z,95831.84
2022-09-18T15:23:33.009Z,95833.56
2022-09-18T15:26:02.738Z,95803.41
2022-09-18T15:28:33.487Z,95834.88
2022-09-18T15:31:08.389Z,95837.19
2022-09-18T15:33:37.823Z,95834.00
2022-09-18T15:36:05.239Z,95816.25
2022-09-18T15:38:52.744Z,95851.84
2022-09-18T15:41:29.369Z,95827.97
2022-09-18T15:43:56.175Z,95805.72
2022-09-18T15:46:31.833Z,95848.28
2022-09-18T15:49:00.973Z,95841.47
2022-09-18T15:51:35.889Z,95830.00
2022-09-18T15:54:09.276Z,95847.72
2022-09-18T15:56:39.296Z,95807.72
2022-09-18T15:59:22.571Z,95825.44
2022-09-18T16:01:49.420Z,95852.03
2022-09-18T16:04:28.576Z,95851.19
2022-09-18T16:07:06.546Z,95846.75
2022-09-18T16:09:40.337Z,95825.69
2022-09-18T16:12:31.333Z,95847.47
2022-09-18T16:15:21.055Z,95832.00
2022-09-18T16:17:50.716Z,95838.97
2022-09-18T16:20:34.581Z,95835.91
2022-09-18T16:23:33.798Z,95833.16
2022-09-18T16:26:13.466Z,95830.56
2022-09-18T16:28:44.070Z,95805.00
2022-09-18T16:31:13.103Z,95832.72
2022-09-18T16:33:50.664Z,95837.22
2022-09-18T16:36:33.151Z,95821.59
2022-09-18T16:39:02.318Z,95759.09
2022-09-18T16:41:30.439Z,95804.28
2022-09-18T16:43:57.367Z,95813.56
2022-09-18T16:46:50.760Z,95812.88
2022-09-18T16:49:21.572Z,95795.94
2022-09-18T16:51:48.623Z,95822.13
2022-09-18T16:54:15.335Z,95812.88
2022-09-18T16:56:48.915Z,95761.91
2022-09-18T16:59:16.027Z,95796.56
2022-09-18T17:02:03.370Z,95786.09
2022-09-18T17:04:31.537Z,95826.94
2022-09-18T17:06:58.225Z,95833.28
2022-09-18T17:09:25.025Z,95775.19
2022-09-18T17:11:52.882Z,95832.69
2022-09-18T17:14:20.068Z,95801.28
2022-09-18T17:16:47.143Z,95797.13
2022-09-18T17:19:14.559Z,95786.03
2022-09-18T17:21:41.624Z,95797.72
2022-09-18T17:24:09.055Z,95766.91
2022-09-18T17:26:36.711Z,95810.63
2022-09-18T17:29:03.705Z,95812.16
2022-09-18T17:31:30.431Z,95805.09
2022-09-18T17:33:57.104Z,95801.88
2022-09-18T17:36:23.779Z,95823.06
2022-09-18T17:38:50.497Z,95865.63
2022-09-18T17:41:19.391Z,95848.94
2022-09-18T17:43:53.087Z,95869.78
2022-09-18T17:46:20.409Z,95879.28
2022-09-18T17:48:47.124Z,95867.69
2022-09-18T17:51:18.549Z,95825.91
2022-09-18T17:53:47.865Z,95839.94
2022-09-18T17:56:20.039Z,95839.44
2022-09-18T17:58:54.185Z,95871.56
2022-09-18T18:01:21.036Z,95814.94
2022-09-18T18:03:48.506Z,95862.31
2022-09-18T18:06:21.131Z,95866.47
2022-09-18T18:08:48.266Z,95830.84
2022-09-18T18:11:16.746Z,95832.38
2022-09-18T18:13:44.936Z,95843.81
2022-09-18T18:16:17.224Z,95865.88
2022-09-18T18:18:43.928Z,95876.97
2022-09-18T18:21:11.114Z,95836.50
2022-09-18T18:23:38.496Z,95881.63
2022-09-18T18:26:08.630Z,95880.72
2022-09-18T18:28:37.474Z,95881.63
2022-09-18T18:31:11.427Z,95885.31
2022-09-18T18:33:39.810Z,95873.72
2022-09-18T18:36:16.953Z,95876.81
2022-09-18T18:38:48.079Z,95861.69
2022-09-18T18:41:16.163Z,95850.41
2022-09-18T18:43:42.888Z,95833.59
2022-09-18T18:46:13.916Z,95825.91
2022-09-18T18:48:41.852Z,95856.91
2022-09-18T18:51:12.307Z,95873.28
2022-09-18T18:53:38.996Z,95827.91
2022-09-18T18:56:11.832Z,95858.00
2022-09-18T18:58:39.115Z,95872.81
2022-09-18T19:01:09.197Z,95873.44
2022-09-18T19:03:41.895Z,95851.34
2022-09-18T19:06:09.911Z,95856.59
2022-09-18T19:08:37.303Z,95845.16
2022-09-18T19:11:06.715Z,95862.72
2022-09-18T19:13:41.361Z,95863.09
2022-09-18T19:16:08.298Z,95866.00
2022-09-18T19:18:35.698Z,95818.03
2022-09-18T19:21:02.375Z,95862.94
2022-09-18T19:23:29.068Z,95867.75
2022-09-18T19:25:58.096Z,95879.63
2022-09-18T19:28:24.747Z,95851.06
2022-09-18T19:30:53.730Z,95851.38
2022-09-18T19:33:22.998Z,95890.91
2022-09-18T19:35:50.328Z,95849.31
2022-09-18T19:38:20.375Z,95846.38
2022-09-18T19:40:50.667Z,95849.63
2022-09-18T19:43:31.280Z,95880.47
2022-09-18T19:45:58.526Z,95878.63
2022-09-18T19:48:27.075Z,95872.63
2022-09-18T19:50:54.046Z,95849.75
2022-09-18T19:53:20.942Z,95882.69
2022-09-18T19:55:47.709Z,95865.72
2022-09-18T19:58:16.394Z,95881.94
2022-09-18T20:00:46.648Z,95869.84
2022-09-18T20:03:14.575Z,95844.06
2022-09-18T20:05:43.019Z,95836.66
2022-09-18T20:08:10.120Z,95864.28
2022-09-18T20:10:39.082Z,95864.59
2022-09-18T20:13:10.002Z,95853.03
2022-09-18T20:15:36.627Z,95827.69
2022-09-18T20:18:05.690Z,95807.50
2022-09-18T20:20:35.013Z,95853.19
2022-09-18T20:23:01.590Z,95876.53
2022-09-18T20:25:28.392Z,95827.22
2022-09-18T20:27:54.986Z,95842.56
2022-09-18T20:30:21.741Z,95858.03
2022-09-18T20:32:48.847Z,95871.59
2022-09-18T20:35:15.576Z,95869.41
2022-09-18T20:37:42.223Z,95822.16
2022-09-18T20:40:13.371Z,95839.72
2022-09-18T20:42:40.107Z,95821.50
2022-09-18T20:45:07.356Z,95863.50
2022-09-18T20:47:36.555Z,95868.91
2022-09-18T20:50:08.903Z,95846.84
2022-09-18T20:52:43.060Z,95863.97
2022-09-18T20:55:15.419Z,95874.28
2022-09-18T20:57:44.490Z,95851.78
2022-09-18T21:00:12.591Z,95848.66
2022-09-18T21:02:39.970Z,95865.81
2022-09-18T21:05:11.500Z,95870.09
2022-09-18T21:07:38.166Z,95852.19
2022-09-18T21:10:06.344Z,95848.03
2022-09-18T21:12:38.297Z,95859.56
2022-09-18T21:15:11.775Z,95861.91
2022-09-18T21:17:38.584Z,95819.72
2022-09-18T21:20:06.475Z,95870.31
2022-09-18T21:22:33.328Z,95868.09
2022-09-18T21:24:59.956Z,95821.88
2022-09-18T21:27:26.987Z,95844.72
2022-09-18T21:29:57.808Z,95851.09
2022-09-18T21:32:24.374Z,95867.31
2022-09-18T21:34:52.752Z,95835.50
2022-09-18T21:37:19.491Z,95865.19
2022-09-18T21:39:46.213Z,95863.81
2022-09-18T21:42:12.839Z,95860.88
2022-09-18T21:44:39.667Z,95849.44
2022-09-18T21:47:10.690Z,95850.78
2022-09-18T21:49:37.313Z,95787.16
2022-09-18T21:52:06.799Z,95842.44
2022-09-18T21:54:33.907Z,95859.16
2022-09-18T21:57:01.384Z,95870.88
2022-09-18T21:59:35.445Z,95853.56
2022-09-18T22:02:06.114Z,95866.81
2022-09-18T22:04:33.873Z,95873.75
2022-09-18T22:07:01.801Z,95861.88
2022-09-18T22:09:35.907Z,95861.13
2022-09-18T22:12:02.827Z,95843.81
2022-09-18T22:14:32.385Z,95830.34
2022-09-18T22:17:01.393Z,95853.78
2022-09-18T22:19:29.256Z,95816.13
2022-09-18T22:21:56.146Z,95860.97
2022-09-18T22:24:24.985Z,95831.44
2022-09-18T22:26:55.260Z,95818.44
2022-09-18T22:29:25.065Z,95852.44
2022-09-18T22:31:52.173Z,95824.19
2022-09-18T22:34:21.424Z,95821.09
2022-09-18T22:36:48.543Z,95847.50
2022-09-18T22:39:16.733Z,95796.25
2022-09-18T22:41:44.178Z,95850.75
2022-09-18T22:44:11.809Z,95822.72
2022-09-18T22:46:40.447Z,95822.72
2022-09-18T22:49:08.789Z,95855.31
2022-09-18T22:51:35.426Z,95845.16
2022-09-18T22:54:07.449Z,95838.66
2022-09-18T22:56:38.770Z,95854.75
2022-09-18T22:59:05.696Z,95825.41
2022-09-18T23:01:33.861Z,95822.28
2022-09-18T23:04:03.679Z,95838.16
2022-09-18T23:06:33.314Z,95789.66
2022-09-18T23:09:01.042Z,95839.44
2022-09-18T23:11:30.208Z,95817.78
2022-09-18T23:13:59.571Z,95861.66
2022-09-18T23:16:28.067Z,95829.47
2022-09-18T23:18:58.436Z,95853.16
2022-09-18T23:21:27.098Z,95859.16
2022-09-18T23:23:56.240Z,95801.06
2022-09-18T23:26:28.881Z,95861.03
2022-09-18T23:28:59.986Z,95839.22
2022-09-18T23:31:32.205Z,95833.03
2022-09-18T23:34:01.625Z,95835.09
2022-09-18T23:36:35.749Z,95847.28
2022-09-18T23:39:06.590Z,95858.69
2022-09-18T23:41:34.432Z,95834.88
2022-09-18T23:44:02.497Z,95847.09
2022-09-18T23:46:29.464Z,95810.16
2022-09-18T23:48:56.097Z,95810.75
2022-09-18T23:51:28.134Z,95857.78
2022-09-18T23:53:56.848Z,95832.22
2022-09-18T23:56:24.111Z,95829.91
2022-09-18T23:59:01.208Z,95835.00
